Terminal Aerodrome Forecast
Issued by NWS

Home | Current Version | Previous Version | Text Only | Print | Product List | Glossary On
Versions: 1 2 3 4 5 6 7 8 9 10 11 12 13 14
000
FTUS43 KDDC 302341
TAFGCK
TAF
KGCK 302341Z 3100/3124 36006KT P6SM SKC
     FM311000 02010KT 3SM BR SCT005
     FM311300 04012KT P6SM BKN009
     FM311600 05009KT P6SM SCT015=

USA.gov is the U.S. government's official web portal to all federal, state and local government web resources and services.